Nelvik, North Dakota
Current Conditions -  °F | °C
As of 10:55 AM on Wednesday 22 Oct 2014 (Local Time) from K7L2 Reporting Station
Haze Haze  
Wind Chill: 54°   Ceiling: 4200
Heat Index: 54°   Visibility: 6mi
Dew Point: 52°   Wind: 13mph
Humidity: 94%   Direction: 280°W
Pressure: 29.87"   Gusts: 16mph
Location:  46.0926°N, 99.1856°W
Report Text: K7L2 221555Z AUTO 28011G14KT 6SM BR FEW018 BKN042 OVC049 12/11 A2987 RMK AO2 PWINO PNO
Loading
Personal Weather Stations






























Interactive Weather Map
Tropical Storm Tracking
New forecast layout! Learn more

10-Day Weather Forecast

Advertisements
Track Severe Weather on mobile